createdAt,value
2023-01-05T00:02:01.626Z,14.07
2023-01-05T00:04:28.209Z,14.20
2023-01-05T00:06:54.595Z,14.79
2023-01-05T00:09:22.597Z,15.10
2023-01-05T00:12:07.694Z,14.15
2023-01-05T00:14:52.851Z,13.35
2023-01-05T00:17:41.605Z,13.28
2023-01-05T00:20:32.405Z,12.92
2023-01-05T00:22:58.997Z,13.17
2023-01-05T00:25:26.494Z,13.38
2023-01-05T00:27:54.004Z,13.30
2023-01-05T00:30:22.055Z,13.82
2023-01-05T00:32:49.126Z,13.18
2023-01-05T00:35:16.621Z,13.71
2023-01-05T00:37:43.599Z,13.58
2023-01-05T00:40:12.458Z,13.75
2023-01-05T00:42:39.255Z,14.35
2023-01-05T00:45:09.297Z,13.83
2023-01-05T00:47:43.320Z,14.08
2023-01-05T00:50:11.037Z,12.68
2023-01-05T00:52:37.953Z,13.03
2023-01-05T00:55:04.851Z,13.73
2023-01-05T00:57:31.757Z,13.39
2023-01-05T00:59:58.555Z,13.93
2023-01-05T01:02:25.227Z,13.26
2023-01-05T01:04:58.919Z,12.70
2023-01-05T01:07:44.339Z,13.79
2023-01-05T01:10:11.398Z,12.89
2023-01-05T01:12:37.976Z,13.14
2023-01-05T01:15:05.333Z,13.40
2023-01-05T01:17:32.162Z,13.66
2023-01-05T01:19:59.062Z,12.90
2023-01-05T01:22:33.834Z,12.88
2023-01-05T01:25:01.123Z,12.52
2023-01-05T01:27:27.720Z,13.20
2023-01-05T01:29:55.185Z,13.26
2023-01-05T01:32:21.853Z,13.19
2023-01-05T01:34:48.719Z,13.15
2023-01-05T01:37:22.361Z,13.06
2023-01-05T01:39:48.697Z,13.21
2023-01-05T01:42:16.660Z,12.75
2023-01-05T01:44:55.409Z,12.60
2023-01-05T01:47:31.618Z,12.08
2023-01-05T01:50:00.352Z,12.89
2023-01-05T01:52:27.489Z,13.40
2023-01-05T01:54:55.762Z,12.71
2023-01-05T01:57:22.666Z,13.12
2023-01-05T01:59:50.273Z,12.90
2023-01-05T02:02:16.707Z,12.90
2023-01-05T02:04:43.799Z,11.56
2023-01-05T02:07:12.498Z,13.04
2023-01-05T02:09:39.302Z,12.59
2023-01-05T02:12:05.650Z,13.25
2023-01-05T02:14:32.219Z,13.20
2023-01-05T02:17:11.399Z,12.78
2023-01-05T02:19:56.656Z,12.07
2023-01-05T02:22:29.298Z,12.68
2023-01-05T02:25:12.495Z,13.72
2023-01-05T02:27:48.326Z,13.21
2023-01-05T02:30:34.647Z,12.45
2023-01-05T02:33:01.063Z,12.71
2023-01-05T02:35:33.407Z,12.88
2023-01-05T02:37:59.955Z,13.34
2023-01-05T02:40:32.240Z,13.92
2023-01-05T02:43:00.001Z,12.60
2023-01-05T02:45:26.778Z,11.82
2023-01-05T02:47:53.211Z,12.17
2023-01-05T02:50:26.505Z,12.83
2023-01-05T02:52:57.091Z,12.66
2023-01-05T02:55:30.339Z,13.27
2023-01-05T02:58:00.107Z,11.73
2023-01-05T03:00:33.405Z,12.08
2023-01-05T03:03:02.908Z,13.16
2023-01-05T03:05:32.489Z,13.44
2023-01-05T03:08:11.092Z,12.71
2023-01-05T03:11:14.153Z,12.66
2023-01-05T03:13:42.871Z,12.82
2023-01-05T03:16:16.103Z,13.17
2023-01-05T03:19:02.855Z,12.68
2023-01-05T03:21:29.426Z,13.41
2023-01-05T03:24:15.057Z,13.16
2023-01-05T03:27:00.426Z,12.32
2023-01-05T03:29:45.857Z,12.97
2023-01-05T03:32:41.443Z,12.78
2023-01-05T03:35:32.679Z,12.53
2023-01-05T03:38:03.311Z,12.00
2023-01-05T03:40:31.019Z,12.42
2023-01-05T03:42:57.811Z,12.53
2023-01-05T03:45:26.537Z,12.20
2023-01-05T03:47:53.144Z,12.17
2023-01-05T03:50:20.154Z,13.16
2023-01-05T03:52:46.705Z,12.70
2023-01-05T03:55:13.329Z,12.52
2023-01-05T03:57:39.835Z,12.72
2023-01-05T04:00:06.707Z,12.31
2023-01-05T04:02:33.617Z,12.81
2023-01-05T04:05:00.158Z,12.81
2023-01-05T04:07:26.744Z,12.53
2023-01-05T04:09:53.263Z,12.69
2023-01-05T04:12:19.803Z,12.24
2023-01-05T04:14:46.243Z,11.62
2023-01-05T04:17:12.774Z,12.23
2023-01-05T04:19:39.210Z,11.84
2023-01-05T04:22:06.186Z,12.92
2023-01-05T04:24:32.928Z,12.44
2023-01-05T04:26:59.228Z,12.94
2023-01-05T04:29:25.884Z,12.95
2023-01-05T04:31:52.481Z,12.16
2023-01-05T04:34:18.883Z,12.22
2023-01-05T04:36:47.792Z,11.89
2023-01-05T04:39:14.591Z,12.42
2023-01-05T04:41:42.775Z,12.17
2023-01-05T04:44:09.965Z,12.05
2023-01-05T04:46:36.763Z,11.72
2023-01-05T04:49:03.354Z,11.15
2023-01-05T04:51:29.867Z,11.58
2023-01-05T04:53:56.403Z,12.67
2023-01-05T04:56:23.511Z,11.79
2023-01-05T04:58:50.263Z,11.78
2023-01-05T05:01:16.868Z,11.33
2023-01-05T05:03:44.761Z,12.03
2023-01-05T05:06:11.311Z,12.78
2023-01-05T05:08:37.762Z,12.53
2023-01-05T05:11:04.737Z,12.68
2023-01-05T05:13:31.387Z,11.81
2023-01-05T05:15:58.019Z,11.67
2023-01-05T05:18:24.719Z,12.80
2023-01-05T05:20:52.165Z,12.60
2023-01-05T05:23:18.914Z,12.31
2023-01-05T05:25:45.356Z,11.36
2023-01-05T05:28:12.182Z,11.67
2023-01-05T05:30:38.767Z,11.99
2023-01-05T05:33:05.378Z,12.14
2023-01-05T05:35:31.748Z,12.48
2023-01-05T05:37:58.326Z,11.46
2023-01-05T05:40:26.266Z,11.68
2023-01-05T05:42:52.616Z,12.10
2023-01-05T05:45:18.950Z,11.36
2023-01-05T05:47:45.950Z,11.37
2023-01-05T05:50:12.380Z,11.97
2023-01-05T05:52:39.353Z,12.21
2023-01-05T05:55:06.421Z,12.01
2023-01-05T05:57:33.013Z,12.45
2023-01-05T05:59:59.974Z,12.55
2023-01-05T06:02:26.918Z,11.69
2023-01-05T06:04:53.505Z,11.93
2023-01-05T06:07:20.311Z,12.26
2023-01-05T06:09:46.860Z,11.85
2023-01-05T06:12:13.430Z,11.52
2023-01-05T06:14:40.297Z,11.65
2023-01-05T06:17:08.430Z,11.53
2023-01-05T06:19:35.579Z,11.94
2023-01-05T06:22:02.322Z,12.23
2023-01-05T06:24:28.720Z,12.14
2023-01-05T06:26:55.183Z,11.57
2023-01-05T06:29:21.542Z,11.63
2023-01-05T06:31:48.096Z,11.28
2023-01-05T06:34:14.810Z,11.67
2023-01-05T06:36:41.349Z,12.49
2023-01-05T06:39:08.071Z,12.27
2023-01-05T06:41:35.552Z,12.23
2023-01-05T06:44:01.911Z,11.56
2023-01-05T06:46:28.264Z,11.91
2023-01-05T06:48:54.612Z,11.60
2023-01-05T06:51:21.153Z,11.19
2023-01-05T06:53:47.836Z,12.49
2023-01-05T06:56:14.739Z,12.44
2023-01-05T06:58:41.324Z,12.19
2023-01-05T07:01:09.433Z,12.16
2023-01-05T07:03:35.977Z,12.57
2023-01-05T07:06:04.862Z,11.97
2023-01-05T07:08:33.378Z,12.49
2023-01-05T07:10:59.947Z,12.65
2023-01-05T07:13:26.344Z,13.00
2023-01-05T07:15:52.802Z,11.46
2023-01-05T07:18:19.291Z,12.02
2023-01-05T07:20:45.956Z,11.70
2023-01-05T07:23:12.376Z,12.69
2023-01-05T07:25:38.857Z,12.76
2023-01-05T07:28:05.367Z,12.13
2023-01-05T07:30:31.882Z,11.67
2023-01-05T07:32:59.060Z,11.87
2023-01-05T07:35:25.420Z,11.68
2023-01-05T07:37:52.012Z,11.04
2023-01-05T07:40:18.651Z,11.57
2023-01-05T07:42:49.768Z,11.76
2023-01-05T07:45:16.326Z,11.61
2023-01-05T07:47:43.181Z,11.95
2023-01-05T07:50:09.776Z,11.44
2023-01-05T07:52:37.384Z,11.67
2023-01-05T07:55:03.896Z,12.92
2023-01-05T07:57:30.361Z,11.57
2023-01-05T07:59:57.187Z,11.72
2023-01-05T08:02:24.063Z,11.98
2023-01-05T08:04:50.463Z,11.36
2023-01-05T08:07:16.876Z,12.04
2023-01-05T08:10:01.938Z,12.86
2023-01-05T08:12:29.503Z,11.97
2023-01-05T08:14:55.809Z,11.66
2023-01-05T08:17:22.450Z,11.82
2023-01-05T08:19:49.485Z,11.48
2023-01-05T08:22:16.260Z,11.63
2023-01-05T08:24:42.852Z,12.06
2023-01-05T08:27:09.655Z,11.66
2023-01-05T08:29:36.368Z,12.14
2023-01-05T08:32:02.913Z,12.25
2023-01-05T08:34:34.430Z,11.64
2023-01-05T08:37:01.410Z,11.07
2023-01-05T08:39:27.844Z,11.61
2023-01-05T08:42:00.445Z,11.29
2023-01-05T08:44:29.555Z,12.34
2023-01-05T08:46:56.257Z,10.97
2023-01-05T08:49:23.477Z,11.20
2023-01-05T08:51:49.897Z,11.49
2023-01-05T08:54:16.849Z,11.89
2023-01-05T08:56:44.194Z,11.79
2023-01-05T08:59:12.461Z,10.96
2023-01-05T09:01:39.016Z,11.24
2023-01-05T09:04:06.111Z,11.92
2023-01-05T09:06:32.726Z,10.94
2023-01-05T09:08:59.077Z,10.73
2023-01-05T09:11:26.021Z,10.65
2023-01-05T09:13:54.461Z,10.48
2023-01-05T09:19:09.810Z,10.70
2023-01-05T09:21:36.392Z,11.45
2023-01-05T09:24:03.201Z,11.21
2023-01-05T09:26:29.826Z,10.53
2023-01-05T09:28:57.050Z,10.51
2023-01-05T09:31:23.436Z,10.75
2023-01-05T09:33:50.353Z,11.33
2023-01-05T09:36:17.892Z,11.32
2023-01-05T09:38:48.991Z,12.19
2023-01-05T09:41:26.022Z,10.76
2023-01-05T09:43:55.928Z,10.92
2023-01-05T09:46:25.265Z,10.32
2023-01-05T09:48:55.894Z,10.93
2023-01-05T09:51:22.628Z,10.69
2023-01-05T09:53:49.293Z,10.64
2023-01-05T09:56:58.860Z,10.28
2023-01-05T09:59:15.618Z,10.34
2023-01-05T10:01:42.464Z,10.53
2023-01-05T10:04:15.342Z,9.98
2023-01-05T10:06:44.254Z,11.00
2023-01-05T10:09:15.351Z,10.21
2023-01-05T10:12:12.978Z,10.64
2023-01-05T10:14:41.373Z,10.10
2023-01-05T10:17:40.545Z,9.93
2023-01-05T10:20:01.377Z,10.01
2023-01-05T10:22:44.834Z,10.50
2023-01-05T10:25:21.058Z,10.56
2023-01-05T10:27:59.984Z,10.04
2023-01-05T10:30:34.733Z,10.09
2023-01-05T10:33:25.921Z,9.91
2023-01-05T10:36:10.311Z,9.74
2023-01-05T10:38:38.936Z,10.04
2023-01-05T10:41:34.186Z,10.60
2023-01-05T10:44:11.966Z,12.09
2023-01-05T10:46:44.818Z,11.89
2023-01-05T10:49:26.889Z,11.53
2023-01-05T10:51:56.823Z,11.61
2023-01-05T10:54:43.154Z,10.81
2023-01-05T10:57:34.150Z,10.70
2023-01-05T11:00:02.299Z,11.14
2023-01-05T11:02:30.416Z,10.58
2023-01-05T11:05:04.284Z,11.43
2023-01-05T11:07:31.521Z,10.90
2023-01-05T11:09:58.390Z,10.05
2023-01-05T11:12:26.043Z,10.14
2023-01-05T11:14:59.130Z,10.57
2023-01-05T11:17:27.677Z,10.91
2023-01-05T11:19:58.322Z,11.09
2023-01-05T11:22:29.523Z,10.98
2023-01-05T11:25:13.249Z,10.62
2023-01-05T11:27:40.723Z,11.32
2023-01-05T11:30:26.617Z,11.81
2023-01-05T11:32:53.588Z,11.67
2023-01-05T11:35:22.801Z,11.86
2023-01-05T11:37:58.179Z,11.92
2023-01-05T11:40:29.218Z,11.52
2023-01-05T11:42:55.762Z,11.91
2023-01-05T11:45:28.483Z,10.66
2023-01-05T11:47:57.343Z,11.44
2023-01-05T11:50:31.832Z,10.83
2023-01-05T11:53:02.420Z,11.16
2023-01-05T11:55:31.433Z,11.56
2023-01-05T11:58:09.239Z,12.24
2023-01-05T12:00:45.677Z,10.84
2023-01-05T12:03:24.491Z,11.21
2023-01-05T12:05:53.294Z,11.59
2023-01-05T12:08:44.104Z,11.78
2023-01-05T12:11:22.106Z,12.07
2023-01-05T12:14:07.447Z,11.31
2023-01-05T12:16:41.709Z,11.21
2023-01-05T12:19:20.262Z,11.14
2023-01-05T12:22:05.479Z,11.19
2023-01-05T12:24:39.500Z,11.48
2023-01-05T12:27:12.537Z,10.99
2023-01-05T12:31:13.089Z,10.68
2023-01-05T12:35:59.355Z,10.60
2023-01-05T12:38:44.516Z,11.33
2023-01-05T12:41:10.852Z,11.18
2023-01-05T12:43:37.467Z,11.47
2023-01-05T12:46:07.340Z,11.62
2023-01-05T12:48:53.234Z,12.00
2023-01-05T12:51:26.798Z,11.91
2023-01-05T12:53:58.151Z,11.73
2023-01-05T12:56:34.591Z,11.68
2023-01-05T12:59:04.140Z,11.57
2023-01-05T13:01:33.968Z,11.43
2023-01-05T13:04:03.911Z,12.10
2023-01-05T13:06:36.694Z,11.64
2023-01-05T13:09:07.238Z,11.25
2023-01-05T13:11:36.299Z,13.22
2023-01-05T13:14:21.466Z,12.33
2023-01-05T13:17:09.922Z,11.69
2023-01-05T13:19:50.456Z,11.44
2023-01-05T13:22:23.356Z,11.07
2023-01-05T13:25:04.118Z,11.92
2023-01-05T13:27:32.115Z,12.68
2023-01-05T13:30:00.440Z,12.23
2023-01-05T13:32:45.629Z,11.27
2023-01-05T13:35:36.369Z,12.45
2023-01-05T13:38:08.771Z,12.01
2023-01-05T13:40:56.862Z,12.33
2023-01-05T13:43:42.045Z,12.28
2023-01-05T13:46:30.761Z,12.71
2023-01-05T13:49:06.309Z,13.07
2023-01-05T13:51:39.663Z,12.74
2023-01-05T13:54:37.783Z,12.81
2023-01-05T13:57:16.233Z,12.30
2023-01-05T13:59:55.041Z,11.66
2023-01-05T14:02:29.170Z,12.42
2023-01-05T14:04:55.771Z,12.42
2023-01-05T14:07:22.526Z,12.52
2023-01-05T14:09:55.639Z,12.47
2023-01-05T14:12:22.333Z,12.69
2023-01-05T14:15:23.979Z,12.57
2023-01-05T14:17:50.701Z,12.14
2023-01-05T14:20:37.258Z,12.23
2023-01-05T14:23:23.726Z,12.95
2023-01-05T14:25:52.826Z,12.13
2023-01-05T14:28:22.241Z,12.45
2023-01-05T14:30:49.898Z,12.86
2023-01-05T14:33:17.788Z,11.78
2023-01-05T14:35:45.242Z,12.10
2023-01-05T14:38:14.729Z,12.48
2023-01-05T14:40:43.431Z,12.33
2023-01-05T14:43:39.060Z,13.25
2023-01-05T14:46:20.102Z,13.10
2023-01-05T14:49:07.515Z,13.45
2023-01-05T14:51:35.636Z,13.90
2023-01-05T14:54:03.743Z,14.37
2023-01-05T14:56:32.725Z,14.08
2023-01-05T14:59:01.944Z,13.83
2023-01-05T15:01:34.371Z,13.13
2023-01-05T15:04:05.842Z,14.07
2023-01-05T15:06:32.978Z,12.58
2023-01-05T15:09:20.726Z,12.59
2023-01-05T15:11:56.837Z,13.30
2023-01-05T15:14:32.546Z,12.44
2023-01-05T15:17:10.068Z,13.05
2023-01-05T15:19:39.637Z,12.96
2023-01-05T15:22:39.349Z,13.07
2023-01-05T15:25:06.045Z,13.55
2023-01-05T15:28:02.192Z,12.38
2023-01-05T15:30:32.265Z,12.53
2023-01-05T15:33:25.241Z,13.07
2023-01-05T15:35:54.123Z,12.89
2023-01-05T15:38:22.318Z,12.81
2023-01-05T15:40:50.421Z,12.92
2023-01-05T15:43:17.174Z,12.78
2023-01-05T15:45:50.248Z,12.72
2023-01-05T15:48:21.864Z,13.30
2023-01-05T15:50:52.343Z,13.25
2023-01-05T15:53:28.567Z,12.99
2023-01-05T15:55:56.258Z,13.05
2023-01-05T15:58:23.946Z,13.05
2023-01-05T16:01:01.881Z,13.63
2023-01-05T16:03:30.053Z,13.15
2023-01-05T16:06:01.318Z,13.26
2023-01-05T16:08:28.676Z,13.11
2023-01-05T16:10:57.241Z,13.24
2023-01-05T16:13:23.857Z,12.77
2023-01-05T16:15:52.507Z,13.23
2023-01-05T16:18:24.370Z,13.02
2023-01-05T16:20:52.529Z,13.35
2023-01-05T16:23:22.237Z,13.59
2023-01-05T16:25:53.294Z,13.29
2023-01-05T16:28:22.972Z,13.85
2023-01-05T16:30:50.771Z,13.85
2023-01-05T16:33:36.582Z,14.35
2023-01-05T16:36:13.028Z,14.48
2023-01-05T16:38:40.631Z,14.52
2023-01-05T16:41:10.096Z,13.92
2023-01-05T16:43:40.950Z,13.91
2023-01-05T16:46:25.940Z,14.46
2023-01-05T16:48:56.403Z,14.58
2023-01-05T16:51:22.958Z,14.84
2023-01-05T16:53:55.017Z,14.62
2023-01-05T16:56:36.854Z,14.61
2023-01-05T16:59:04.826Z,14.70
2023-01-05T17:01:49.893Z,14.83
2023-01-05T17:04:17.523Z,14.93
2023-01-05T17:06:48.863Z,14.65
2023-01-05T17:09:23.258Z,14.77
2023-01-05T17:11:50.358Z,14.77
2023-01-05T17:14:18.074Z,14.98
2023-01-05T17:16:44.913Z,14.81
2023-01-05T17:19:15.972Z,14.98
2023-01-05T17:21:44.173Z,14.86
2023-01-05T17:24:14.082Z,14.72
2023-01-05T17:26:42.786Z,14.52
2023-01-05T17:29:16.432Z,14.91
2023-01-05T17:31:43.223Z,14.82
2023-01-05T17:34:10.012Z,14.95
2023-01-05T17:36:36.795Z,14.62
2023-01-05T17:39:05.381Z,14.81
2023-01-05T17:41:32.181Z,14.65
2023-01-05T17:43:58.634Z,14.63
2023-01-05T17:46:29.182Z,14.85
2023-01-05T17:48:56.930Z,14.78
2023-01-05T17:51:23.854Z,14.86
2023-01-05T17:53:51.035Z,14.76
2023-01-05T17:56:19.884Z,14.66
2023-01-05T17:58:47.895Z,14.84
2023-01-05T18:01:14.612Z,14.81
2023-01-05T18:03:41.355Z,14.85
2023-01-05T18:06:09.243Z,14.76
2023-01-05T18:08:36.977Z,14.79
2023-01-05T18:11:05.007Z,14.84
2023-01-05T18:13:31.474Z,14.76
2023-01-05T18:18:25.707Z,14.54
2023-01-05T18:20:52.864Z,14.37
2023-01-05T18:23:24.779Z,14.51
2023-01-05T18:25:51.091Z,14.59
2023-01-05T18:28:18.119Z,14.41
2023-01-05T18:30:45.202Z,14.51
2023-01-05T18:35:43.658Z,14.25
2023-01-05T18:38:10.813Z,14.31
2023-01-05T18:40:37.456Z,14.16
2023-01-05T18:43:04.555Z,14.24
2023-01-05T18:45:38.934Z,13.80
2023-01-05T18:48:06.426Z,13.87
2023-01-05T18:50:33.085Z,13.69
2023-01-05T18:52:59.510Z,13.71
2023-01-05T18:55:26.126Z,13.43
2023-01-05T18:57:53.605Z,13.22
2023-01-05T19:00:21.688Z,13.23
2023-01-05T19:02:48.417Z,12.85
2023-01-05T19:05:15.669Z,12.87
2023-01-05T19:07:43.510Z,13.11
2023-01-05T19:10:11.611Z,12.86
2023-01-05T19:12:38.964Z,12.72
2023-01-05T19:15:06.153Z,12.84
2023-01-05T19:17:34.314Z,12.72
2023-01-05T19:20:02.418Z,12.55
2023-01-05T19:22:29.597Z,12.39
2023-01-05T19:24:57.100Z,12.17
2023-01-05T19:27:23.834Z,12.12
2023-01-05T19:29:50.344Z,12.25
2023-01-05T19:32:17.466Z,12.25
2023-01-05T19:34:44.182Z,12.01
2023-01-05T19:37:11.322Z,12.19
2023-01-05T19:39:38.065Z,11.92
2023-01-05T19:42:05.669Z,11.83
2023-01-05T19:44:32.596Z,11.78
2023-01-05T19:46:59.060Z,11.70
2023-01-05T19:49:27.109Z,11.68
2023-01-05T19:51:54.407Z,11.63
2023-01-05T19:54:22.463Z,11.74
2023-01-05T19:56:48.958Z,11.68
2023-01-05T19:59:21.494Z,11.73
2023-01-05T20:01:48.512Z,11.82
2023-01-05T20:04:15.526Z,11.99
2023-01-05T20:06:44.305Z,11.90
2023-01-05T20:09:13.568Z,12.08
2023-01-05T20:11:51.496Z,12.07
2023-01-05T20:14:25.975Z,12.15
2023-01-05T20:16:56.868Z,12.22
2023-01-05T20:19:26.762Z,12.29
2023-01-05T20:21:55.456Z,12.41
2023-01-05T20:24:23.521Z,12.40
2023-01-05T20:26:51.587Z,12.43
2023-01-05T20:29:19.026Z,12.47
2023-01-05T20:31:47.721Z,12.45
2023-01-05T20:34:19.544Z,12.54
2023-01-05T20:36:46.311Z,12.72
2023-01-05T20:39:14.946Z,12.69
2023-01-05T20:41:42.585Z,12.75
2023-01-05T20:44:09.706Z,12.62
2023-01-05T20:46:38.475Z,12.71
2023-01-05T20:49:05.515Z,12.71
2023-01-05T20:51:32.719Z,12.69
2023-01-05T20:54:01.706Z,12.77
2023-01-05T20:56:34.142Z,12.91
2023-01-05T20:59:01.459Z,12.71
2023-01-05T21:01:27.950Z,12.87
2023-01-05T21:03:55.271Z,12.89
2023-01-05T21:06:22.162Z,12.79
2023-01-05T21:08:50.013Z,12.92
2023-01-05T21:11:17.824Z,13.20
2023-01-05T21:13:45.582Z,13.23
2023-01-05T21:16:16.879Z,13.21
2023-01-05T21:18:43.699Z,13.10
2023-01-05T21:21:12.815Z,13.07
2023-01-05T21:23:39.498Z,13.12
2023-01-05T21:26:12.258Z,13.38
2023-01-05T21:28:41.627Z,13.59
2023-01-05T21:31:09.715Z,13.35
2023-01-05T21:33:37.396Z,13.34
2023-01-05T21:36:04.711Z,13.55
2023-01-05T21:39:01.968Z,13.39
2023-01-05T21:41:18.208Z,13.35
2023-01-05T21:43:45.623Z,13.50
2023-01-05T21:46:12.198Z,13.46
2023-01-05T21:48:39.413Z,13.44
2023-01-05T21:51:24.583Z,13.43
2023-01-05T21:54:09.693Z,13.48
2023-01-05T21:56:39.693Z,13.61
2023-01-05T21:59:11.325Z,13.39
2023-01-05T22:01:39.335Z,13.55
2023-01-05T22:04:06.783Z,13.54
2023-01-05T22:06:33.714Z,13.43
2023-01-05T22:09:00.457Z,13.64
2023-01-05T22:11:27.426Z,13.61
2023-01-05T22:13:57.203Z,13.50
2023-01-05T22:16:24.222Z,13.55
2023-01-05T22:18:51.702Z,13.59
2023-01-05T22:21:18.705Z,13.80
2023-01-05T22:23:46.055Z,13.87
2023-01-05T22:26:14.761Z,13.83
2023-01-05T22:28:45.401Z,13.69
2023-01-05T22:31:20.333Z,13.57
2023-01-05T22:33:50.246Z,13.76
2023-01-05T22:36:18.075Z,13.53
2023-01-05T22:38:45.731Z,13.72
2023-01-05T22:41:13.946Z,13.91
2023-01-05T22:43:41.664Z,13.86
2023-01-05T22:46:12.314Z,13.80
2023-01-05T22:48:40.335Z,13.78
2023-01-05T22:51:09.002Z,13.55
2023-01-05T22:53:35.407Z,13.57
2023-01-05T22:56:02.147Z,13.56
2023-01-05T22:58:28.553Z,13.67
2023-01-05T23:00:55.100Z,13.80
2023-01-05T23:03:23.707Z,13.74
2023-01-05T23:05:50.271Z,13.77
2023-01-05T23:08:16.878Z,13.85
2023-01-05T23:10:43.333Z,13.99
2023-01-05T23:13:09.709Z,13.84
2023-01-05T23:15:36.265Z,13.83
2023-01-05T23:18:02.796Z,13.54
2023-01-05T23:20:29.289Z,13.54
2023-01-05T23:22:56.141Z,13.57
2023-01-05T23:25:22.808Z,13.76
2023-01-05T23:27:49.654Z,13.90
2023-01-05T23:30:16.306Z,13.69
2023-01-05T23:32:42.995Z,13.52
2023-01-05T23:35:09.674Z,13.54
2023-01-05T23:37:36.061Z,13.61
2023-01-05T23:40:02.964Z,13.81
2023-01-05T23:42:46.175Z,13.74
2023-01-05T23:45:13.284Z,13.86
2023-01-05T23:47:39.918Z,13.82
2023-01-05T23:50:06.712Z,13.79
2023-01-05T23:52:33.026Z,13.81
2023-01-05T23:54:59.345Z,13.52
2023-01-05T23:57:26.231Z,13.66
2023-01-05T23:59:52.999Z,13.11
